Time;durP1;ratioP1;P1;durP2;ratioP2;P2;SDS_P1;SDS_P2;PMS_P1;PMS_P2;Temp;Humidity;BMP_temperature;BMP_pressure;BME280_temperature;BME280_humidity;BME280_pressure;Samples;Min_cycle;Max_cycle;Signal;HPM_P1;HPM_P2
2021/07/19 00:00:13;;;;;;;12.60;9.55;;;25.90;74.70;;;;;;5074671;28;20064;-87
2021/07/19 00:02:39;;;;;;;13.27;9.50;;;25.90;74.80;;;;;;5090654;28;20039;-88
2021/07/19 00:05:07;;;;;;;10.95;9.05;;;25.90;74.80;;;;;;5056413;28;20493;-88
2021/07/19 00:07:33;;;;;;;13.30;9.75;;;25.90;74.80;;;;;;5056671;28;20037;-87
2021/07/19 00:09:58;;;;;;;12.85;9.68;;;25.90;74.90;;;;;;5074165;28;20024;-86
2021/07/19 00:12:24;;;;;;;11.65;9.30;;;25.90;75.00;;;;;;5075630;28;20466;-86
2021/07/19 00:14:50;;;;;;;14.65;10.52;;;25.80;75.00;;;;;;5080169;28;20036;-86
2021/07/19 00:17:17;;;;;;;13.10;10.30;;;25.80;75.20;;;;;;4996261;28;1890814;-84
2021/07/19 00:19:46;;;;;;;13.40;10.00;;;25.70;75.30;;;;;;5063624;28;20152;-86
2021/07/19 00:22:12;;;;;;;13.05;10.30;;;25.70;75.40;;;;;;5080458;28;20028;-85
2021/07/19 00:24:37;;;;;;;13.05;10.07;;;25.70;75.70;;;;;;5060296;28;20037;-85
2021/07/19 00:27:03;;;;;;;14.60;10.25;;;25.60;75.80;;;;;;5055921;28;20183;-87
2021/07/19 00:29:29;;;;;;;11.88;9.60;;;25.60;76.00;;;;;;5040016;28;20398;-87
2021/07/19 00:31:56;;;;;;;15.35;9.90;;;25.60;76.10;;;;;;5075920;28;20463;-87
2021/07/19 00:34:21;;;;;;;14.07;10.00;;;25.60;76.20;;;;;;5073222;28;20032;-87
2021/07/19 00:36:50;;;;;;;11.27;8.82;;;25.60;76.30;;;;;;5085601;28;20094;-87
2021/07/19 00:39:17;;;;;;;12.95;9.73;;;25.60;76.40;;;;;;5075673;28;20028;-88
2021/07/19 00:41:42;;;;;;;12.20;8.68;;;25.50;76.60;;;;;;5056489;28;20043;-87
2021/07/19 00:44:08;;;;;;;11.68;8.95;;;25.50;76.60;;;;;;5075098;28;20037;-87
2021/07/19 00:46:35;;;;;;;11.60;9.40;;;25.50;76.60;;;;;;5089923;28;20039;-87
2021/07/19 00:49:01;;;;;;;10.93;8.77;;;25.40;76.90;;;;;;5074669;28;20036;-87
2021/07/19 00:51:27;;;;;;;12.40;9.52;;;25.40;76.90;;;;;;5056536;28;20131;-86
2021/07/19 00:53:53;;;;;;;12.23;9.57;;;25.40;77.20;;;;;;5089694;28;20064;-87
2021/07/19 00:56:21;;;;;;;16.00;11.98;;;25.30;77.30;;;;;;5089747;28;20037;-88
2021/07/19 00:58:50;;;;;;;16.25;11.57;;;25.30;77.90;;;;;;5056419;28;20036;-87
2021/07/19 01:01:17;;;;;;;16.20;11.30;;;25.20;78.10;;;;;;5074779;28;20032;-88
2021/07/19 01:03:45;;;;;;;13.95;11.27;;;25.20;78.30;;;;;;5056505;28;20120;-87
2021/07/19 01:06:11;;;;;;;13.80;10.20;;;25.10;78.40;;;;;;5056914;28;20635;-88
2021/07/19 01:08:38;;;;;;;12.02;9.20;;;25.10;78.40;;;;;;5074383;28;20045;-88
2021/07/19 01:11:03;;;;;;;11.23;8.93;;;25.10;78.50;;;;;;5057130;28;20032;-88
2021/07/19 01:13:29;;;;;;;14.50;9.15;;;25.10;78.60;;;;;;5076069;28;20369;-88
2021/07/19 01:15:55;;;;;;;12.18;9.15;;;25.10;78.60;;;;;;5083055;28;20481;-88
2021/07/19 01:18:22;;;;;;;11.05;8.70;;;25.10;78.60;;;;;;5082130;28;20393;-88
2021/07/19 01:21:00;;;;;;;11.88;9.13;;;25.00;78.70;;;;;;5090709;28;20032;-88
2021/07/19 01:23:53;;;;;;;11.10;8.43;;;25.00;79.30;;;;;;5057254;28;20036;-86
2021/07/19 01:26:38;;;;;;;10.90;8.50;;;24.90;79.60;;;;;;5057479;28;20036;-87
2021/07/19 01:29:06;;;;;;;10.85;7.55;;;24.90;79.10;;;;;;5059146;28;20037;-87
2021/07/19 01:31:42;;;;;;;10.30;7.85;;;24.80;79.40;;;;;;5094053;28;20033;-88
2021/07/19 01:34:12;;;;;;;9.38;7.82;;;24.80;79.60;;;;;;5057857;28;20035;-88
2021/07/19 01:36:42;;;;;;;11.43;9.10;;;24.80;79.70;;;;;;5089732;28;20037;-87
2021/07/19 01:39:09;;;;;;;9.80;8.05;;;24.80;80.10;;;;;;5090382;28;20036;-89
2021/07/19 01:41:36;;;;;;;10.18;7.85;;;24.80;80.30;;;;;;5073929;28;20104;-88
2021/07/19 01:44:05;;;;;;;9.93;7.97;;;24.80;80.30;;;;;;5090532;28;20040;-88
2021/07/19 01:46:31;;;;;;;12.45;9.65;;;24.80;80.60;;;;;;5089999;28;20037;-87
2021/07/19 01:48:58;;;;;;;10.45;8.88;;;24.80;80.90;;;;;;5074045;28;20098;-88
2021/07/19 01:51:25;;;;;;;9.75;8.65;;;24.80;80.90;;;;;;5089264;28;20381;-87
2021/07/19 01:53:51;;;;;;;10.02;8.93;;;24.80;80.90;;;;;;5055984;28;20036;-88
2021/07/19 01:56:19;;;;;;;11.52;9.07;;;24.80;81.00;;;;;;5088897;28;20036;-87
2021/07/19 01:58:45;;;;;;;10.63;8.40;;;24.80;81.10;;;;;;5055506;28;20033;-87
2021/07/19 02:01:12;;;;;;;10.60;8.57;;;24.80;80.90;;;;;;5089717;28;20048;-88
2021/07/19 02:03:38;;;;;;;11.85;8.80;;;24.90;81.00;;;;;;5039241;28;20505;-88
2021/07/19 02:06:05;;;;;;;10.93;8.95;;;24.80;81.10;;;;;;5074112;28;20037;-88
2021/07/19 02:08:34;;;;;;;12.48;9.65;;;24.80;81.20;;;;;;5073176;28;20056;-88
2021/07/19 02:11:01;;;;;;;13.05;9.93;;;24.90;81.30;;;;;;5089503;28;20033;-88
2021/07/19 02:13:31;;;;;;;10.77;8.93;;;24.90;81.20;;;;;;5088966;28;20067;-89
2021/07/19 02:15:58;;;;;;;10.80;9.25;;;24.90;81.20;;;;;;5073323;28;20032;-89
2021/07/19 02:18:25;;;;;;;11.65;9.50;;;24.90;81.40;;;;;;5073746;28;20378;-88
2021/07/19 02:20:54;;;;;;;11.95;9.68;;;24.90;81.50;;;;;;5088886;28;20036;-88
2021/07/19 02:23:21;;;;;;;15.82;10.07;;;24.90;81.90;;;;;;5074192;28;20029;-88
2021/07/19 02:25:50;;;;;;;14.50;10.27;;;24.90;81.90;;;;;;5055485;28;20162;-88
2021/07/19 02:28:16;;;;;;;13.05;9.95;;;24.90;82.00;;;;;;5074052;28;20040;-88
2021/07/19 02:30:42;;;;;;;16.52;10.50;;;24.90;81.90;;;;;;5089000;28;20094;-88
2021/07/19 02:33:11;;;;;;;14.50;10.10;;;24.90;82.10;;;;;;5056007;28;20397;-89
2021/07/19 02:35:37;;;;;;;12.65;9.93;;;24.80;82.20;;;;;;5073639;28;20028;-88
2021/07/19 02:38:07;;;;;;;11.75;9.48;;;24.80;82.10;;;;;;5055783;28;20041;-89
2021/07/19 02:40:33;;;;;;;10.38;8.57;;;24.90;82.20;;;;;;5089403;28;20043;-87
2021/07/19 02:43:04;;;;;;;11.35;8.88;;;24.90;81.90;;;;;;5073564;28;20046;-87
2021/07/19 02:45:36;;;;;;;10.95;8.63;;;24.90;81.90;;;;;;5089949;28;20101;-88
2021/07/19 02:48:04;;;;;;;11.00;9.15;;;24.90;81.90;;;;;;5096517;28;20111;-87
2021/07/19 02:50:36;;;;;;;13.48;9.02;;;24.90;81.90;;;;;;5060005;28;20470;-88
2021/07/19 02:53:08;;;;;;;11.48;9.10;;;25.00;81.90;;;;;;5092506;28;20029;-89
2021/07/19 02:55:35;;;;;;;9.93;8.63;;;25.00;82.10;;;;;;5077113;28;20033;-88
2021/07/19 02:58:02;;;;;;;12.13;9.48;;;25.00;81.90;;;;;;5092593;28;20060;-87
2021/07/19 03:00:28;;;;;;;11.80;8.98;;;25.00;82.00;;;;;;5077583;28;20029;-86
2021/07/19 03:02:57;;;;;;;10.65;9.07;;;25.10;81.90;;;;;;5081436;28;20037;-86
2021/07/19 03:05:27;;;;;;;10.23;8.95;;;25.10;81.90;;;;;;5087031;28;20060;-85
2021/07/19 03:07:56;;;;;;;12.68;9.77;;;25.10;82.00;;;;;;5098085;28;20040;-87
2021/07/19 03:10:24;;;;;;;11.32;9.32;;;25.10;81.90;;;;;;5094680;28;20531;-86
2021/07/19 03:12:57;;;;;;;13.27;10.15;;;25.20;81.80;;;;;;5076061;28;20028;-87
2021/07/19 03:15:33;;;;;;;12.57;9.63;;;25.20;81.90;;;;;;5059499;28;20036;-88
2021/07/19 03:18:03;;;;;;;11.73;9.70;;;25.20;82.00;;;;;;5058343;28;20139;-88
2021/07/19 03:20:30;;;;;;;13.20;10.60;;;25.20;81.80;;;;;;5076403;28;20060;-87
2021/07/19 03:22:56;;;;;;;13.07;9.82;;;25.30;81.80;;;;;;5058497;28;20056;-86
2021/07/19 03:25:27;;;;;;;13.40;10.30;;;25.30;81.70;;;;;;5057655;28;20044;-86
2021/07/19 03:27:54;;;;;;;12.55;10.00;;;25.30;81.70;;;;;;5058877;28;20032;-87
2021/07/19 03:30:21;;;;;;;15.15;10.80;;;25.40;81.80;;;;;;5057810;28;20040;-87
2021/07/19 03:32:49;;;;;;;12.70;10.38;;;25.40;81.70;;;;;;5076049;28;20028;-86
2021/07/19 03:35:17;;;;;;;13.18;10.77;;;25.50;81.80;;;;;;5076478;28;20493;-87
2021/07/19 03:37:45;;;;;;;15.35;11.10;;;25.50;81.70;;;;;;5058427;28;20105;-87
2021/07/19 03:40:12;;;;;;;14.77;10.68;;;25.50;81.60;;;;;;5076203;28;20172;-86
2021/07/19 03:42:39;;;;;;;11.23;9.68;;;25.60;81.60;;;;;;5057457;28;20041;-87
2021/07/19 03:45:06;;;;;;;12.18;10.00;;;25.70;81.40;;;;;;5057868;28;20540;-88
2021/07/19 03:47:34;;;;;;;11.25;9.43;;;25.70;81.30;;;;;;5076065;28;20039;-87
2021/07/19 03:50:03;;;;;;;10.85;9.63;;;25.80;81.20;;;;;;5075575;28;20083;-88
2021/07/19 03:52:29;;;;;;;12.07;9.35;;;25.90;81.10;;;;;;5057492;28;20486;-86
2021/07/19 03:54:54;;;;;;;10.50;8.68;;;25.90;81.10;;;;;;5057302;28;20029;-86
2021/07/19 03:57:24;;;;;;;10.25;9.00;;;26.00;81.00;;;;;;5076083;28;20043;-86
2021/07/19 03:59:50;;;;;;;10.88;8.77;;;26.10;80.70;;;;;;5067135;28;20067;-87
2021/07/19 04:02:18;;;;;;;9.68;8.27;;;26.20;80.50;;;;;;5061788;28;20036;-87
2021/07/19 04:04:51;;;;;;;9.75;7.82;;;26.30;80.30;;;;;;5091681;28;20040;-88
2021/07/19 04:07:17;;;;;;;10.85;8.27;;;26.30;80.10;;;;;;5057900;28;20071;-89
2021/07/19 04:09:44;;;;;;;8.95;7.72;;;26.40;80.00;;;;;;5057553;28;20489;-88
2021/07/19 04:12:15;;;;;;;8.70;7.50;;;26.40;79.70;;;;;;5091185;28;20041;-87
2021/07/19 04:14:42;;;;;;;10.27;7.95;;;26.50;79.70;;;;;;5058754;28;20033;-90
2021/07/19 04:17:11;;;;;;;10.13;8.05;;;26.60;79.40;;;;;;5065978;28;20103;-88
2021/07/19 04:19:37;;;;;;;9.07;7.70;;;26.70;79.20;;;;;;5036518;28;20037;-90
2021/07/19 04:22:03;;;;;;;8.68;7.68;;;26.70;79.00;;;;;;5039054;28;20037;-87
2021/07/19 04:24:29;;;;;;;9.95;7.93;;;26.80;78.70;;;;;;5057103;28;20033;-86
2021/07/19 04:27:01;;;;;;;10.25;7.30;;;26.80;78.40;;;;;;5037778;28;20091;-89
2021/07/19 04:29:28;;;;;;;9.88;7.60;;;26.90;78.20;;;;;;5037255;28;20033;-88
2021/07/19 04:31:58;;;;;;;10.80;7.47;;;27.00;78.10;;;;;;5036991;28;20036;-90
2021/07/19 04:34:34;;;;;;;10.43;7.78;;;27.10;77.80;;;;;;5037709;28;20048;-88
2021/07/19 04:37:07;;;;;;;9.45;7.10;;;27.10;77.50;;;;;;5037375;28;20037;-88
2021/07/19 04:39:33;;;;;;;8.75;7.00;;;27.20;77.30;;;;;;5038190;28;20035;-87
2021/07/19 04:42:03;;;;;;;8.23;6.88;;;27.30;76.90;;;;;;5054804;28;20037;-90
2021/07/19 04:44:29;;;;;;;21.33;17.83;;;27.30;76.60;;;;;;5042009;28;20033;-95
2021/07/19 04:46:59;;;;;;;17.73;13.60;;;27.40;76.30;;;;;;5043592;28;20056;-95
2021/07/19 04:49:26;;;;;;;12.93;9.70;;;27.40;76.00;;;;;;5034993;28;20038;-88
2021/07/19 04:51:52;;;;;;;11.07;8.20;;;27.50;75.50;;;;;;5053549;28;20094;-92
2021/07/19 04:54:27;;;;;;;9.95;8.60;;;27.60;75.30;;;;;;5035155;28;20029;-90
2021/07/19 04:57:00;;;;;;;10.10;7.40;;;27.60;74.80;;;;;;5035546;28;20029;-96
2021/07/19 04:59:32;;;;;;;15.40;7.63;;;27.60;74.50;;;;;;5046927;28;20104;-93
2021/07/19 05:01:59;;;;;;;9.73;7.90;;;27.70;74.40;;;;;;5036404;28;20120;-87
2021/07/19 05:04:27;;;;;;;7.95;6.47;;;27.70;74.20;;;;;;5036136;28;20033;-87
2021/07/19 05:06:56;;;;;;;11.98;6.93;;;27.80;74.00;;;;;;5053995;28;20041;-86
2021/07/19 05:09:24;;;;;;;8.53;6.50;;;27.80;73.80;;;;;;5036371;28;20033;-86
2021/07/19 05:11:51;;;;;;;6.43;5.70;;;27.90;73.70;;;;;;5054066;28;20112;-86
2021/07/19 05:14:19;;;;;;;70.53;52.83;;;28.00;73.60;;;;;;5037244;28;20033;-94
2021/07/19 05:16:46;;;;;;;39.72;31.92;;;28.10;73.40;;;;;;5044565;28;20131;-92
2021/07/19 05:19:12;;;;;;;23.95;19.60;;;28.10;73.00;;;;;;5059906;28;20040;-93
2021/07/19 05:21:39;;;;;;;14.60;12.98;;;28.20;72.60;;;;;;5058001;28;20127;-92
2021/07/19 05:24:05;;;;;;;14.18;10.57;;;28.30;72.40;;;;;;5075840;28;20033;-88
2021/07/19 05:26:34;;;;;;;13.57;9.13;;;28.30;72.80;;;;;;5073133;28;20544;-91
2021/07/19 05:29:00;;;;;;;13.00;8.77;;;28.30;72.00;;;;;;5090543;28;20055;-90
2021/07/19 05:31:27;;;;;;;9.32;7.00;;;28.40;71.70;;;;;;5061330;28;20471;-91
2021/07/19 05:33:53;;;;;;;11.73;6.47;;;28.40;71.50;;;;;;5093678;28;20033;-90
2021/07/19 05:36:19;;;;;;;113.25;86.05;;;28.50;71.40;;;;;;5083813;28;20043;-89
2021/07/19 05:38:46;;;;;;;54.63;44.25;;;28.50;71.30;;;;;;5070374;28;20537;-87
2021/07/19 05:41:15;;;;;;;32.97;26.13;;;28.60;71.10;;;;;;5069532;28;20132;-86
2021/07/19 05:43:41;;;;;;;23.15;18.55;;;28.70;71.10;;;;;;5066574;28;20415;-90
2021/07/19 05:46:08;;;;;;;18.73;13.98;;;28.70;70.90;;;;;;5056273;28;20046;-91
2021/07/19 05:48:33;;;;;;;17.25;12.05;;;28.80;70.70;;;;;;5074868;28;20052;-90
2021/07/19 05:50:59;;;;;;;11.75;9.57;;;28.80;70.40;;;;;;5056280;28;20044;-88
2021/07/19 05:53:25;;;;;;;12.27;9.10;;;28.90;70.20;;;;;;5058427;28;20036;-88
2021/07/19 05:55:52;;;;;;;10.50;8.32;;;28.90;70.10;;;;;;5058632;28;20037;-89
2021/07/19 05:58:18;;;;;;;9.93;7.60;;;29.00;70.00;;;;;;5055204;28;20063;-89
2021/07/19 06:00:44;;;;;;;9.68;7.72;;;29.00;69.80;;;;;;5053101;28;20029;-88
2021/07/19 06:03:10;;;;;;;11.07;7.55;;;29.10;69.60;;;;;;5071510;28;20028;-89
2021/07/19 06:05:36;;;;;;;10.77;7.65;;;29.20;69.20;;;;;;5051823;28;20049;-89
2021/07/19 06:08:03;;;;;;;12.55;8.10;;;29.30;69.10;;;;;;5052530;28;20397;-89
2021/07/19 06:10:29;;;;;;;9.02;7.45;;;29.30;68.90;;;;;;5052995;28;20036;-89
2021/07/19 06:12:55;;;;;;;10.25;7.22;;;29.40;68.80;;;;;;5052670;28;20039;-90
2021/07/19 06:15:20;;;;;;;8.15;6.45;;;29.50;69.00;;;;;;5071587;28;20040;-90
2021/07/19 06:17:46;;;;;;;10.90;7.60;;;29.60;68.00;;;;;;5042111;28;20053;-90
2021/07/19 06:20:18;;;;;;;7.18;6.20;;;29.60;67.80;;;;;;5034673;28;20136;-90
2021/07/19 06:22:45;;;;;;;8.70;6.35;;;29.70;67.60;;;;;;5038879;28;20029;-89
2021/07/19 06:25:13;;;;;;;11.50;6.93;;;29.80;67.40;;;;;;5039587;28;20040;-89
2021/07/19 06:27:40;;;;;;;11.95;7.32;;;30.00;67.00;;;;;;5040143;28;20124;-89
2021/07/19 06:30:10;;;;;;;9.95;7.25;;;30.00;66.60;;;;;;5057993;28;20036;-89
2021/07/19 06:32:36;;;;;;;8.63;6.63;;;30.10;66.20;;;;;;5039317;28;20033;-91
2021/07/19 06:35:04;;;;;;;12.02;6.47;;;30.20;65.90;;;;;;5039569;28;20033;-90
2021/07/19 06:37:29;;;;;;;10.07;7.35;;;30.20;65.60;;;;;;5041364;28;20041;-89
2021/07/19 06:39:55;;;;;;;8.82;6.88;;;30.30;65.40;;;;;;5043037;28;20424;-90
2021/07/19 06:42:23;;;;;;;10.27;7.03;;;30.40;65.30;;;;;;5061875;28;20091;-91
2021/07/19 06:44:52;;;;;;;10.43;7.70;;;30.50;64.90;;;;;;5040789;28;20387;-89
2021/07/19 06:47:18;;;;;;;8.80;7.10;;;30.50;64.80;;;;;;5057117;28;20037;-91
2021/07/19 06:49:44;;;;;;;9.48;7.80;;;30.60;64.70;;;;;;5057006;28;20034;-89
2021/07/19 06:52:10;;;;;;;8.95;7.15;;;30.70;64.60;;;;;;5038904;28;20056;-89
2021/07/19 06:54:36;;;;;;;8.25;7.00;;;30.80;65.00;;;;;;5039238;28;20043;-90
2021/07/19 06:57:01;;;;;;;8.80;6.88;;;30.90;63.80;;;;;;5056840;28;20037;-89
2021/07/19 06:59:27;;;;;;;9.45;7.25;;;31.00;63.30;;;;;;5056954;28;20083;-91
2021/07/19 07:01:53;;;;;;;9.32;6.82;;;31.00;63.20;;;;;;5056584;28;20064;-91
2021/07/19 07:04:18;;;;;;;10.05;7.00;;;31.10;62.90;;;;;;5039182;28;20033;-91
2021/07/19 07:06:44;;;;;;;8.55;6.88;;;31.20;62.60;;;;;;5039062;28;20414;-91
2021/07/19 07:09:10;;;;;;;7.75;6.70;;;31.30;62.30;;;;;;5038528;28;20060;-91
2021/07/19 07:11:36;;;;;;;9.65;6.13;;;31.30;62.00;;;;;;5056632;28;20546;-91
2021/07/19 07:14:02;;;;;;;6.88;5.80;;;31.40;61.60;;;;;;5057207;28;20048;-92
2021/07/19 07:16:28;;;;;;;8.20;6.13;;;31.50;61.40;;;;;;5043880;28;20113;-91
2021/07/19 07:18:55;;;;;;;8.60;6.55;;;31.60;61.00;;;;;;5058432;28;20497;-91
2021/07/19 07:21:21;;;;;;;8.38;6.15;;;31.70;60.80;;;;;;5058946;28;20037;-90
2021/07/19 07:23:47;;;;;;;7.72;6.43;;;31.90;60.60;;;;;;5078382;28;20490;-91
2021/07/19 07:26:12;;;;;;;6.65;5.65;;;32.00;60.20;;;;;;5068153;28;20439;-91
2021/07/19 07:28:38;;;;;;;6.90;5.57;;;32.00;59.90;;;;;;5067240;28;20035;-91
2021/07/19 07:31:04;;;;;;;6.85;6.15;;;32.20;59.60;;;;;;5086405;28;20041;-89
2021/07/19 07:33:29;;;;;;;8.27;6.32;;;32.20;59.40;;;;;;5064364;28;20035;-88
2021/07/19 07:35:55;;;;;;;8.15;5.68;;;32.30;59.00;;;;;;5076058;28;20059;-88
2021/07/19 07:38:21;;;;;;;6.57;5.75;;;32.40;58.70;;;;;;5058693;28;20493;-87
2021/07/19 07:40:48;;;;;;;8.75;6.00;;;32.40;58.30;;;;;;5075712;28;20097;-89
2021/07/19 07:43:14;;;;;;;6.35;5.60;;;32.50;58.10;;;;;;5075951;28;20088;-89
2021/07/19 07:45:40;;;;;;;6.57;5.63;;;32.60;57.90;;;;;;5075638;28;20471;-86
2021/07/19 07:48:06;;;;;;;7.75;5.03;;;32.70;57.80;;;;;;5057485;28;20037;-87
2021/07/19 07:50:31;;;;;;;6.72;5.30;;;32.80;57.60;;;;;;5075669;28;20047;-86
2021/07/19 07:52:57;;;;;;;7.72;6.43;;;32.80;57.60;;;;;;5057844;28;20076;-87
2021/07/19 07:55:23;;;;;;;8.32;6.20;;;32.90;57.50;;;;;;5075237;28;20383;-87
2021/07/19 07:57:49;;;;;;;9.95;5.95;;;33.10;57.30;;;;;;5075609;28;20103;-86
2021/07/19 08:00:17;;;;;;;8.77;5.53;;;33.10;57.00;;;;;;5057438;28;20033;-88
2021/07/19 08:02:43;;;;;;;7.28;5.90;;;33.20;56.80;;;;;;5057948;28;20036;-87
2021/07/19 08:05:10;;;;;;;6.57;5.88;;;33.30;56.70;;;;;;5059298;28;20063;-87
2021/07/19 08:07:39;;;;;;;6.50;5.80;;;33.30;56.10;;;;;;5057393;28;20040;-88
2021/07/19 08:10:06;;;;;;;6.88;5.75;;;33.30;56.60;;;;;;5075886;28;20028;-87
2021/07/19 08:12:33;;;;;;;6.70;5.70;;;33.30;56.10;;;;;;5057132;28;20115;-87
2021/07/19 08:14:59;;;;;;;7.63;6.03;;;33.40;55.90;;;;;;5057013;28;20037;-87
2021/07/19 08:17:25;;;;;;;7.30;5.97;;;33.50;55.40;;;;;;5057251;28;20509;-88
2021/07/19 08:19:52;;;;;;;6.78;6.07;;;33.60;55.90;;;;;;5056995;28;20036;-88
2021/07/19 08:22:21;;;;;;;8.18;5.90;;;33.80;55.90;;;;;;5074938;28;20035;-88
2021/07/19 08:24:47;;;;;;;;;;;34.20;56.20;;;;;;5057228;28;20037;-87
2021/07/19 08:27:13;;;;;;;7.82;6.30;;;34.30;50.90;;;;;;5074559;28;19989;-87
2021/07/19 08:29:39;;;;;;;7.93;6.35;;;34.60;55.70;;;;;;5056856;28;20427;-87
2021/07/19 08:32:05;;;;;;;6.47;5.55;;;35.00;55.40;;;;;;5074900;28;20059;-88
2021/07/19 08:34:31;;;;;;;6.90;5.70;;;35.30;54.50;;;;;;5056506;28;20044;-87
2021/07/19 08:36:56;;;;;;;7.85;6.18;;;35.60;54.10;;;;;;5057637;28;20060;-87
2021/07/19 08:39:22;;;;;;;6.38;5.57;;;35.90;53.90;;;;;;5056711;28;20440;-88
2021/07/19 08:41:48;;;;;;;6.78;6.07;;;36.20;53.70;;;;;;5074222;28;20037;-87
2021/07/19 08:44:14;;;;;;;7.13;6.28;;;36.40;53.20;;;;;;5073888;28;20451;-88
2021/07/19 08:46:41;;;;;;;8.02;6.03;;;36.70;53.00;;;;;;5057331;28;20052;-89
2021/07/19 08:49:07;;;;;;;9.55;6.00;;;37.00;52.20;;;;;;5075399;28;20461;-88
2021/07/19 08:51:37;;;;;;;8.10;5.90;;;37.30;51.90;;;;;;5074735;28;20513;-89
2021/07/19 08:54:03;;;;;;;6.47;5.88;;;37.60;51.50;;;;;;5056734;28;20043;-89
2021/07/19 08:56:29;;;;;;;8.77;5.82;;;37.90;51.20;;;;;;5074516;28;20024;-89
2021/07/19 08:58:55;;;;;;;6.65;5.95;;;38.10;50.50;;;;;;5056625;28;20367;-89
2021/07/19 09:01:21;;;;;;;6.70;6.00;;;38.30;49.80;;;;;;5056461;28;20447;-90
2021/07/19 09:03:47;;;;;;;7.05;6.28;;;38.50;49.60;;;;;;5056825;28;20039;-89
2021/07/19 09:06:13;;;;;;;6.10;5.35;;;38.60;48.80;;;;;;5087141;28;20044;-90
2021/07/19 09:08:50;;;;;;;8.00;6.03;;;38.80;48.20;;;;;;5073431;28;20394;-92
2021/07/19 09:11:18;;;;;;;6.75;5.80;;;39.00;43.90;;;;;;5074643;28;20039;-92
2021/07/19 09:13:58;;;;;;;7.97;6.22;;;39.10;47.60;;;;;;5074281;28;20071;-91
2021/07/19 09:16:25;;;;;;;7.22;5.97;;;39.20;44.80;;;;;;5074734;28;20036;-92
2021/07/19 09:19:16;;;;;;;6.78;5.60;;;39.30;47.00;;;;;;5057028;28;20039;-90
2021/07/19 09:21:43;;;;;;;7.38;6.10;;;39.50;43.10;;;;;;5074380;28;20038;-91
2021/07/19 09:24:15;;;;;;;6.72;6.03;;;39.60;46.50;;;;;;5056273;28;20036;-92
2021/07/19 09:26:42;;;;;;;8.15;5.80;;;39.80;45.70;;;;;;5058540;28;20036;-91
2021/07/19 09:29:11;;;;;;;7.20;6.13;;;39.90;45.40;;;;;;5074596;28;20051;-92
2021/07/19 09:31:57;;;;;;;6.50;5.80;;;40.00;44.90;;;;;;5074496;28;20371;-92
2021/07/19 09:34:32;;;;;;;6.82;6.13;;;40.00;42.50;;;;;;5058510;28;20381;-92
2021/07/19 09:37:03;;;;;;;6.35;5.75;;;40.10;43.50;;;;;;5076573;28;20040;-92
2021/07/19 09:39:31;;;;;;;9.38;6.07;;;40.30;43.70;;;;;;5057850;28;20032;-92
2021/07/19 09:42:08;;;;;;;6.75;5.82;;;40.40;44.40;;;;;;5074875;28;20463;-92
2021/07/19 09:44:34;;;;;;;7.85;6.22;;;40.60;42.60;;;;;;5056938;28;20036;-90
2021/07/19 09:47:02;;;;;;;6.95;5.90;;;40.60;43.30;;;;;;5074869;28;20041;-91
2021/07/19 09:49:30;;;;;;;6.23;5.40;;;40.80;43.10;;;;;;5056827;28;20039;-91
2021/07/19 09:52:07;;;;;;;7.47;5.90;;;41.00;42.90;;;;;;5056813;28;20120;-91
2021/07/19 09:54:44;;;;;;;7.93;6.60;;;41.10;42.10;;;;;;5056723;28;20386;-91
2021/07/19 09:57:11;;;;;;;8.07;6.43;;;41.10;41.20;;;;;;5058759;28;20040;-91
2021/07/19 09:59:58;;;;;;;7.68;6.53;;;41.10;41.60;;;;;;5060796;28;20029;-91
2021/07/19 10:02:38;;;;;;;8.10;6.32;;;41.30;41.40;;;;;;5078184;28;20513;-91
2021/07/19 10:05:05;;;;;;;8.48;6.65;;;41.20;39.30;;;;;;5060388;28;20102;-92
2021/07/19 10:07:31;;;;;;;8.03;6.40;;;41.10;41.10;;;;;;5060449;28;20550;-91
2021/07/19 10:09:59;;;;;;;7.90;6.30;;;41.10;41.30;;;;;;5060540;28;20064;-92
2021/07/19 10:12:26;;;;;;;6.97;5.90;;;41.30;41.20;;;;;;5066589;28;20036;-92
2021/07/19 10:14:52;;;;;;;11.00;6.97;;;41.30;41.00;;;;;;5081677;28;20091;-92
2021/07/19 10:17:18;;;;;;;7.43;6.70;;;41.30;40.60;;;;;;5072021;28;20071;-91
2021/07/19 10:19:44;;;;;;;9.07;6.45;;;41.40;40.60;;;;;;5062081;28;20036;-91
2021/07/19 10:22:11;;;;;;;8.40;6.88;;;41.40;40.60;;;;;;5064173;28;20055;-91
2021/07/19 10:24:44;;;;;;;7.78;6.90;;;41.50;40.40;;;;;;5063498;28;20039;-90
2021/07/19 10:27:24;;;;;;;9.75;7.00;;;41.70;40.10;;;;;;5061528;28;20044;-92
2021/07/19 10:29:50;;;;;;;9.77;7.15;;;41.60;39.00;;;;;;5078353;28;20033;-93
2021/07/19 10:32:18;;;;;;;7.88;6.63;;;41.60;40.20;;;;;;5080820;28;20032;-92
2021/07/19 10:34:49;;;;;;;9.05;7.20;;;41.80;40.20;;;;;;5082354;28;20033;-91
2021/07/19 10:37:44;;;;;;;6.90;6.20;;;41.90;40.40;;;;;;5084931;28;20041;-92
2021/07/19 10:40:32;;;;;;;9.00;7.28;;;41.80;39.50;;;;;;5060394;28;20474;-92
2021/07/19 10:43:06;;;;;;;8.50;6.68;;;41.70;38.10;;;;;;5069036;28;20059;-91
2021/07/19 10:45:56;;;;;;;8.15;6.72;;;41.80;39.20;;;;;;5071360;28;20036;-90
2021/07/19 10:48:26;;;;;;;9.57;7.13;;;41.90;37.90;;;;;;5074927;28;20040;-92
2021/07/19 10:50:54;;;;;;;9.98;6.88;;;42.00;39.60;;;;;;5072685;28;20032;-91
2021/07/19 10:53:27;;;;;;;9.17;6.73;;;42.20;39.30;;;;;;5077389;28;20033;-91
2021/07/19 10:56:01;;;;;;;8.38;6.75;;;42.40;39.00;;;;;;5076007;28;20043;-89
2021/07/19 10:58:45;;;;;;;8.32;6.80;;;42.70;37.30;;;;;;5076609;28;20043;-89
2021/07/19 11:01:23;;;;;;;8.25;6.68;;;42.80;36.90;;;;;;5092296;28;20037;-90
2021/07/19 11:03:49;;;;;;;7.75;6.47;;;42.90;36.10;;;;;;5063320;28;20028;-91
2021/07/19 11:06:38;;;;;;;8.63;7.13;;;42.90;38.00;;;;;;5079006;28;20040;-92
2021/07/19 11:09:06;;;;;;;7.18;6.32;;;43.00;37.70;;;;;;5060047;28;20045;-92
2021/07/19 11:11:34;;;;;;;7.17;6.43;;;42.90;37.60;;;;;;5077306;28;20032;-90
2021/07/19 11:14:05;;;;;;;7.30;6.32;;;42.90;38.30;;;;;;5058671;28;20323;-90
2021/07/19 11:16:49;;;;;;;11.63;6.63;;;42.90;37.30;;;;;;5076927;28;20040;-90
2021/07/19 11:19:16;;;;;;;8.40;6.65;;;43.00;35.50;;;;;;5058625;28;20029;-89
2021/07/19 11:21:44;;;;;;;7.35;6.10;;;43.00;37.20;;;;;;5058299;28;20505;-87
2021/07/19 11:24:15;;;;;;;6.93;6.22;;;43.10;36.80;;;;;;5076086;28;20028;-88
2021/07/19 11:26:56;;;;;;;7.28;6.15;;;42.90;36.30;;;;;;5060109;28;20044;-88
2021/07/19 11:29:41;;;;;;;6.50;5.78;;;42.50;35.30;;;;;;5057917;28;20047;-87
2021/07/19 11:32:17;;;;;;;7.13;6.20;;;41.80;35.90;;;;;;5058274;28;20509;-88
2021/07/19 11:34:44;;;;;;;6.82;6.10;;;41.40;37.20;;;;;;5058194;28;20379;-88
2021/07/19 11:37:11;;;;;;;9.07;5.97;;;41.20;37.40;;;;;;5075652;28;20490;-88
2021/07/19 11:39:47;;;;;;;8.13;6.30;;;40.70;37.20;;;;;;5075893;28;20036;-88
2021/07/19 11:42:15;;;;;;;8.18;5.88;;;40.10;37.60;;;;;;5075728;28;20126;-88
2021/07/19 11:44:42;;;;;;;7.53;5.72;;;39.30;38.10;;;;;;5057885;28;20037;-88
2021/07/19 11:47:08;;;;;;;20.77;6.80;;;38.50;38.60;;;;;;5057815;28;20389;-88
2021/07/19 11:49:36;;;;;;;21.85;6.53;;;37.70;39.80;;;;;;5058122;28;20047;-88
2021/07/19 11:52:05;;;;;;;26.95;6.65;;;36.50;40.90;;;;;;5058179;28;20326;-88
2021/07/19 11:54:31;;;;;;;;;;;35.30;42.50;;;;;;5075974;28;20102;-88
2021/07/19 11:56:57;;;;;;;16.65;5.85;;;34.00;46.50;;;;;;5057865;28;19904;-87
2021/07/19 11:59:27;;;;;;;10.77;5.70;;;33.00;46.30;;;;;;5057163;28;20036;-87
2021/07/19 12:02:06;;;;;;;9.77;5.50;;;32.10;48.40;;;;;;5057457;28;20036;-88
2021/07/19 12:04:40;;;;;;;13.00;5.82;;;31.30;51.30;;;;;;5057802;28;20042;-87
2021/07/19 12:07:08;;;;;;;10.07;5.47;;;30.60;52.40;;;;;;5057425;28;20044;-87
2021/07/19 12:09:34;;;;;;;7.00;4.82;;;30.10;53.60;;;;;;5057265;28;20036;-88
2021/07/19 12:12:02;;;;;;;12.20;5.22;;;29.60;53.80;;;;;;5074923;28;20078;-86
2021/07/19 12:14:28;;;;;;;9.63;5.80;;;29.20;55.40;;;;;;5075215;28;20162;-86
2021/07/19 12:16:54;;;;;;;10.43;5.70;;;28.90;57.80;;;;;;5074894;28;20048;-85
2021/07/19 12:19:20;;;;;;;10.23;6.75;;;28.50;59.10;;;;;;5056040;28;20044;-86
2021/07/19 12:22:00;;;;;;;13.68;7.03;;;28.00;61.40;;;;;;5057004;28;20115;-87
2021/07/19 12:24:27;;;;;;;;;;;27.60;66.00;;;;;;5057638;28;20060;-87
2021/07/19 12:26:57;;;;;;;10.40;5.45;;;27.10;71.20;;;;;;5074899;28;19912;-86
2021/07/19 12:29:49;;;;;;;9.45;5.43;;;26.90;66.40;;;;;;5074666;28;20025;-86
2021/07/19 12:32:15;;;;;;;7.75;4.78;;;26.80;73.50;;;;;;5053649;28;20387;-86
2021/07/19 12:34:45;;;;;;;7.60;4.85;;;26.70;67.80;;;;;;5074929;28;20039;-87
2021/07/19 12:37:23;;;;;;;7.07;4.72;;;26.80;69.30;;;;;;5056814;28;20036;-89
2021/07/19 12:39:58;;;;;;;7.85;4.82;;;27.20;71.40;;;;;;5074782;28;20033;-85
2021/07/19 12:42:29;;;;;;;5.78;4.43;;;27.90;71.40;;;;;;5056839;28;20060;-87
2021/07/19 12:45:00;;;;;;;8.25;4.97;;;28.90;68.90;;;;;;5057062;28;20099;-87
2021/07/19 12:47:29;;;;;;;6.50;4.50;;;29.90;66.80;;;;;;5056486;28;20093;-88